Main page
METAR-TAF:

METAR-TAF

Airports :

Alpine, Texas, United States

Alpine-Casparis Municipal Airport

latitude: 30-23-03N, longitude: 103-41-00W, elevation: 1376 m

Current weather observation

The report was made 19 minutes ago, at 21:15 UTC
Wind 6 kt from the West/Northwest
Temperature 5°C
Humidity 100%
Pressure 1006 hPa
Visibility: 11.3 km
Broken clouds at a height of 2300 ft
Broken clouds at a height of 2800 ft
Overcast at a height of 4400 ft

METAR: KE38 212115Z AUTO 29006KT 7SM BKN023 BKN028 OVC044 05/05 A2972 RMK AO2 P0001 T00520048

Time: 15:34 (21:34 UTC)


TAF: missing

Weather observations and forecasts of more than 4000 airports (METAR and TAF reports).

The available stations are represented by yellow and red dots on the map.

Hover mouse over dot to see the name of the station.

Then click to see weather observations and forecasts.

To change the map : click on the green buttons with a black cross to zoom in, on the green button with a dash to zoom out, or on the green arrows for adjacent maps.


METAR-TAF: